CUQ weather

Coen Airport
Coen, Queensland, Australia

Public forecast

Using degrees Celsius for public forecast. Weather courtesy of forecast.io.

Closest aviation weather report (METAR) to Coen Airport

Closest report is Weipa Airport, 95.1 nm (176.2 km) NW. Retrieved 2019/10/22 15:00 UTC (38 minutes ago):

YBWP 221500Z AUTO 09007KT 9999 // NCD 24/18 Q1012

Closest aviation forecast (TAF) to Coen Airport

Closest forecast is Gove Airport, 379.0 nm (701.9 km) WNW. Retrieved 2019/10/22 14:00 UTC (2 hours ago):

TAF YPGV 221200Z 2214/2302 12007KT 9999 FEW018 FM221800 10005KT 9999 SCT015 FM222300 09016KT 9999 SCT025